sensor_id;sensor_type;location;lat;lon;timestamp;pressure;altitude;pressure_sealevel;temperature;humidity
54876;BME280;40764;48.472;8.166;2024-03-06T00:05:28;98290.84;;;6.18;100.00
54876;BME280;40764;48.472;8.166;2024-03-06T00:11:29;98283.97;;;6.05;100.00
54876;BME280;40764;48.472;8.166;2024-03-06T00:17:29;98291.00;;;5.96;100.00
54876;BME280;40764;48.472;8.166;2024-03-06T00:23:29;98290.22;;;6.06;100.00
54876;BME280;40764;48.472;8.166;2024-03-06T00:29:31;98286.72;;;6.10;100.00
54876;BME280;40764;48.472;8.166;2024-03-06T00:35:31;98289.22;;;6.22;100.00
54876;BME280;40764;48.472;8.166;2024-03-06T00:41:31;98284.06;;;6.20;100.00
54876;BME280;40764;48.472;8.166;2024-03-06T00:47:32;98284.78;;;6.01;100.00
54876;BME280;40764;48.472;8.166;2024-03-06T00:53:37;98271.97;;;5.91;100.00
54876;BME280;40764;48.472;8.166;2024-03-06T00:59:37;98278.53;;;6.05;100.00
54876;BME280;40764;48.472;8.166;2024-03-06T01:05:38;98293.03;;;6.26;100.00
54876;BME280;40764;48.472;8.166;2024-03-06T01:11:38;98299.56;;;6.35;100.00
54876;BME280;40764;48.472;8.166;2024-03-06T01:17:38;98306.16;;;5.92;100.00
54876;BME280;40764;48.472;8.166;2024-03-06T01:23:39;98306.88;;;6.25;100.00
54876;BME280;40764;48.472;8.166;2024-03-06T01:29:39;98312.16;;;6.51;100.00
54876;BME280;40764;48.472;8.166;2024-03-06T01:35:39;98313.06;;;6.10;100.00
54876;BME280;40764;48.472;8.166;2024-03-06T01:41:46;98316.09;;;6.24;100.00
54876;BME280;40764;48.472;8.166;2024-03-06T01:47:47;98318.78;;;6.18;100.00
54876;BME280;40764;48.472;8.166;2024-03-06T01:53:48;98318.31;;;6.32;100.00
54876;BME280;40764;48.472;8.166;2024-03-06T01:59:48;98317.81;;;6.40;100.00
54876;BME280;40764;48.472;8.166;2024-03-06T02:05:52;98307.72;;;6.35;100.00
54876;BME280;40764;48.472;8.166;2024-03-06T02:11:53;98315.66;;;6.42;100.00
54876;BME280;40764;48.472;8.166;2024-03-06T02:17:54;98312.13;;;6.41;100.00
54876;BME280;40764;48.472;8.166;2024-03-06T02:23:54;98321.22;;;6.15;100.00
54876;BME280;40764;48.472;8.166;2024-03-06T02:29:55;98318.56;;;6.30;100.00
54876;BME280;40764;48.472;8.166;2024-03-06T02:35:56;98316.19;;;6.44;100.00
54876;BME280;40764;48.472;8.166;2024-03-06T02:41:56;98320.00;;;6.43;100.00
54876;BME280;40764;48.472;8.166;2024-03-06T02:47:56;98327.06;;;6.44;100.00
54876;BME280;40764;48.472;8.166;2024-03-06T02:53:57;98320.56;;;6.50;100.00
54876;BME280;40764;48.472;8.166;2024-03-06T02:59:58;98317.84;;;6.50;100.00
54876;BME280;40764;48.472;8.166;2024-03-06T03:05:58;98314.31;;;6.55;100.00
54876;BME280;40764;48.472;8.166;2024-03-06T03:11:59;98317.16;;;6.17;100.00
54876;BME280;40764;48.472;8.166;2024-03-06T03:17:59;98317.47;;;6.26;100.00
54876;BME280;40764;48.472;8.166;2024-03-06T03:23:59;98319.75;;;6.49;100.00
54876;BME280;40764;48.472;8.166;2024-03-06T03:30:00;98321.91;;;6.47;100.00
54876;BME280;40764;48.472;8.166;2024-03-06T03:36:01;98321.34;;;6.40;100.00
54876;BME280;40764;48.472;8.166;2024-03-06T03:42:01;98339.28;;;6.46;100.00
54876;BME280;40764;48.472;8.166;2024-03-06T03:48:02;98334.69;;;6.52;100.00
54876;BME280;40764;48.472;8.166;2024-03-06T03:54:03;98336.97;;;6.80;100.00
54876;BME280;40764;48.472;8.166;2024-03-06T04:00:03;98347.19;;;6.58;100.00
54876;BME280;40764;48.472;8.166;2024-03-06T04:06:11;98342.59;;;6.64;100.00
54876;BME280;40764;48.472;8.166;2024-03-06T04:12:11;98347.53;;;6.77;100.00
54876;BME280;40764;48.472;8.166;2024-03-06T04:18:11;98348.22;;;6.42;100.00
54876;BME280;40764;48.472;8.166;2024-03-06T04:24:12;98363.19;;;6.44;100.00
54876;BME280;40764;48.472;8.166;2024-03-06T04:30:12;98362.38;;;6.44;100.00
54876;BME280;40764;48.472;8.166;2024-03-06T04:36:13;98371.91;;;6.51;100.00
54876;BME280;40764;48.472;8.166;2024-03-06T04:42:13;98376.00;;;6.64;100.00
54876;BME280;40764;48.472;8.166;2024-03-06T04:48:13;98375.78;;;6.66;100.00
54876;BME280;40764;48.472;8.166;2024-03-06T04:54:13;98382.56;;;6.68;100.00
54876;BME280;40764;48.472;8.166;2024-03-06T05:00:14;98394.59;;;6.35;100.00
54876;BME280;40764;48.472;8.166;2024-03-06T05:06:15;98397.31;;;6.35;100.00
54876;BME280;40764;48.472;8.166;2024-03-06T05:12:16;98409.00;;;6.36;100.00
54876;BME280;40764;48.472;8.166;2024-03-06T05:18:16;98408.03;;;6.52;100.00
54876;BME280;40764;48.472;8.166;2024-03-06T05:24:17;98421.34;;;6.53;100.00
54876;BME280;40764;48.472;8.166;2024-03-06T05:30:17;98429.72;;;6.47;100.00
54876;BME280;40764;48.472;8.166;2024-03-06T05:36:17;98426.13;;;6.36;100.00
54876;BME280;40764;48.472;8.166;2024-03-06T05:42:17;98428.63;;;6.43;100.00
54876;BME280;40764;48.472;8.166;2024-03-06T05:48:18;98439.75;;;6.41;100.00
54876;BME280;40764;48.472;8.166;2024-03-06T05:54:22;98442.81;;;6.60;100.00
54876;BME280;40764;48.472;8.166;2024-03-06T06:00:22;98458.38;;;6.70;100.00
54876;BME280;40764;48.472;8.166;2024-03-06T06:06:22;98461.13;;;6.80;100.00
54876;BME280;40764;48.472;8.166;2024-03-06T06:12:23;98470.94;;;6.86;100.00
54876;BME280;40764;48.472;8.166;2024-03-06T06:18:23;98476.69;;;6.95;100.00
54876;BME280;40764;48.472;8.166;2024-03-06T06:24:23;98481.09;;;7.06;100.00
54876;BME280;40764;48.472;8.166;2024-03-06T06:30:23;98486.00;;;7.09;100.00
54876;BME280;40764;48.472;8.166;2024-03-06T06:36:24;98495.94;;;6.88;100.00
54876;BME280;40764;48.472;8.166;2024-03-06T06:42:25;98496.03;;;6.56;100.00
54876;BME280;40764;48.472;8.166;2024-03-06T06:48:30;98498.03;;;6.71;100.00
54876;BME280;40764;48.472;8.166;2024-03-06T06:54:30;98511.41;;;6.82;100.00
54876;BME280;40764;48.472;8.166;2024-03-06T07:00:31;98521.78;;;6.91;100.00
54876;BME280;40764;48.472;8.166;2024-03-06T07:06:32;98522.66;;;6.96;100.00
54876;BME280;40764;48.472;8.166;2024-03-06T07:12:33;98520.41;;;6.88;100.00
54876;BME280;40764;48.472;8.166;2024-03-06T07:18:33;98524.72;;;6.79;100.00
54876;BME280;40764;48.472;8.166;2024-03-06T07:24:33;98526.63;;;6.83;100.00
54876;BME280;40764;48.472;8.166;2024-03-06T07:30:34;98540.59;;;6.60;100.00
54876;BME280;40764;48.472;8.166;2024-03-06T07:36:35;98548.69;;;6.92;100.00
54876;BME280;40764;48.472;8.166;2024-03-06T07:42:35;98553.72;;;6.68;100.00
54876;BME280;40764;48.472;8.166;2024-03-06T07:48:36;98552.81;;;6.58;100.00
54876;BME280;40764;48.472;8.166;2024-03-06T07:54:37;98559.69;;;6.65;100.00
54876;BME280;40764;48.472;8.166;2024-03-06T08:00:39;98566.34;;;6.90;100.00
54876;BME280;40764;48.472;8.166;2024-03-06T08:06:39;98570.06;;;6.73;100.00
54876;BME280;40764;48.472;8.166;2024-03-06T08:12:41;98581.78;;;6.79;100.00
54876;BME280;40764;48.472;8.166;2024-03-06T08:18:41;98590.75;;;6.79;100.00
54876;BME280;40764;48.472;8.166;2024-03-06T08:24:42;98586.97;;;6.86;100.00
54876;BME280;40764;48.472;8.166;2024-03-06T08:30:42;98590.69;;;6.69;100.00
54876;BME280;40764;48.472;8.166;2024-03-06T08:36:44;98600.84;;;6.89;100.00
54876;BME280;40764;48.472;8.166;2024-03-06T08:42:44;98609.66;;;7.06;100.00
54876;BME280;40764;48.472;8.166;2024-03-06T08:48:45;98606.38;;;6.99;100.00
54876;BME280;40764;48.472;8.166;2024-03-06T08:54:46;98605.38;;;6.73;100.00
54876;BME280;40764;48.472;8.166;2024-03-06T09:00:46;98615.88;;;6.65;100.00
54876;BME280;40764;48.472;8.166;2024-03-06T09:06:48;98614.22;;;6.96;100.00
54876;BME280;40764;48.472;8.166;2024-03-06T09:12:51;98627.97;;;6.79;100.00
54876;BME280;40764;48.472;8.166;2024-03-06T09:18:52;98624.38;;;7.10;100.00
54876;BME280;40764;48.472;8.166;2024-03-06T09:24:52;98622.53;;;7.21;100.00
54876;BME280;40764;48.472;8.166;2024-03-06T09:30:53;98628.53;;;7.23;100.00
54876;BME280;40764;48.472;8.166;2024-03-06T09:36:53;98634.28;;;7.32;100.00
54876;BME280;40764;48.472;8.166;2024-03-06T09:42:54;98631.56;;;7.32;100.00
54876;BME280;40764;48.472;8.166;2024-03-06T09:48:56;98637.44;;;7.66;100.00
54876;BME280;40764;48.472;8.166;2024-03-06T09:54:57;98642.16;;;7.86;98.69
54876;BME280;40764;48.472;8.166;2024-03-06T10:01:01;98638.81;;;7.68;98.93
54876;BME280;40764;48.472;8.166;2024-03-06T10:07:03;98646.78;;;7.85;96.86
54876;BME280;40764;48.472;8.166;2024-03-06T10:13:04;98635.72;;;8.17;95.94
54876;BME280;40764;48.472;8.166;2024-03-06T10:19:18;98648.19;;;8.03;94.37
54876;BME280;40764;48.472;8.166;2024-03-06T10:25:22;98653.63;;;8.03;96.31
54876;BME280;40764;48.472;8.166;2024-03-06T10:31:29;98644.78;;;8.63;94.40
54876;BME280;40764;48.472;8.166;2024-03-06T10:37:29;98650.47;;;8.36;93.70
54876;BME280;40764;48.472;8.166;2024-03-06T10:43:30;98651.63;;;8.81;94.32
54876;BME280;40764;48.472;8.166;2024-03-06T10:49:32;98643.13;;;8.37;93.08
54876;BME280;40764;48.472;8.166;2024-03-06T10:55:35;98646.72;;;8.78;94.29
54876;BME280;40764;48.472;8.166;2024-03-06T11:01:36;98647.25;;;8.60;92.17
54876;BME280;40764;48.472;8.166;2024-03-06T11:07:37;98647.78;;;8.57;91.70
54876;BME280;40764;48.472;8.166;2024-03-06T11:13:39;98653.78;;;8.54;94.38
54876;BME280;40764;48.472;8.166;2024-03-06T11:26:08;98651.31;;;8.47;92.68
54876;BME280;40764;48.472;8.166;2024-03-06T11:32:11;98659.78;;;8.41;93.49
54876;BME280;40764;48.472;8.166;2024-03-06T11:38:12;98652.41;;;8.61;91.98
54876;BME280;40764;48.472;8.166;2024-03-06T11:44:16;98652.16;;;8.78;92.74
54876;BME280;40764;48.472;8.166;2024-03-06T11:50:17;98648.88;;;8.66;92.31
54876;BME280;40764;48.472;8.166;2024-03-06T11:56:20;98658.44;;;8.79;91.65
54876;BME280;40764;48.472;8.166;2024-03-06T12:02:21;98644.75;;;9.19;90.76
54876;BME280;40764;48.472;8.166;2024-03-06T12:08:21;98645.00;;;9.33;89.38
54876;BME280;40764;48.472;8.166;2024-03-06T12:14:22;98639.84;;;9.21;90.57
54876;BME280;40764;48.472;8.166;2024-03-06T12:20:24;98641.78;;;8.85;90.95
54876;BME280;40764;48.472;8.166;2024-03-06T12:26:25;98639.63;;;8.82;90.80
54876;BME280;40764;48.472;8.166;2024-03-06T12:32:26;98641.78;;;9.11;89.95
54876;BME280;40764;48.472;8.166;2024-03-06T12:38:29;98646.72;;;8.98;89.23
54876;BME280;40764;48.472;8.166;2024-03-06T12:44:30;98636.59;;;8.89;91.25
54876;BME280;40764;48.472;8.166;2024-03-06T12:50:31;98627.31;;;9.10;91.47
54876;BME280;40764;48.472;8.166;2024-03-06T12:56:33;98626.81;;;8.73;91.82
54876;BME280;40764;48.472;8.166;2024-03-06T13:02:33;98632.53;;;8.56;91.91
54876;BME280;40764;48.472;8.166;2024-03-06T13:08:33;98626.53;;;8.64;93.35
54876;BME280;40764;48.472;8.166;2024-03-06T13:14:34;98619.72;;;8.82;91.97
54876;BME280;40764;48.472;8.166;2024-03-06T13:20:34;98621.34;;;8.57;93.20
54876;BME280;40764;48.472;8.166;2024-03-06T13:26:34;98622.72;;;8.55;94.34
54876;BME280;40764;48.472;8.166;2024-03-06T13:32:38;98625.44;;;8.50;93.79
54876;BME280;40764;48.472;8.166;2024-03-06T13:38:38;98624.31;;;8.35;95.33
54876;BME280;40764;48.472;8.166;2024-03-06T13:44:38;98626.81;;;8.42;94.51
54876;BME280;40764;48.472;8.166;2024-03-06T13:50:39;98636.88;;;8.62;94.53
54876;BME280;40764;48.472;8.166;2024-03-06T13:56:39;98636.88;;;8.52;95.09
54876;BME280;40764;48.472;8.166;2024-03-06T14:02:39;98633.28;;;8.21;97.03
54876;BME280;40764;48.472;8.166;2024-03-06T14:08:40;98639.81;;;8.30;94.42
54876;BME280;40764;48.472;8.166;2024-03-06T14:14:41;98632.81;;;8.39;92.96
54876;BME280;40764;48.472;8.166;2024-03-06T14:20:43;98645.53;;;8.28;92.54
54876;BME280;40764;48.472;8.166;2024-03-06T14:26:44;98640.63;;;8.15;90.54
54876;BME280;40764;48.472;8.166;2024-03-06T14:32:44;98644.38;;;8.04;92.05
54876;BME280;40764;48.472;8.166;2024-03-06T14:38:54;98639.59;;;8.52;90.76
54876;BME280;40764;48.472;8.166;2024-03-06T14:44:54;98649.66;;;8.36;95.81
54876;BME280;40764;48.472;8.166;2024-03-06T14:50:55;98650.16;;;8.13;95.43
54876;BME280;40764;48.472;8.166;2024-03-06T14:56:55;98649.53;;;7.95;99.62
54876;BME280;40764;48.472;8.166;2024-03-06T15:02:56;98649.34;;;8.32;95.03
54876;BME280;40764;48.472;8.166;2024-03-06T15:09:46;98656.19;;;8.35;94.72
54876;BME280;40764;48.472;8.166;2024-03-06T15:15:46;98651.88;;;7.71;100.00
54876;BME280;40764;48.472;8.166;2024-03-06T15:21:46;98653.72;;;7.56;100.00
54876;BME280;40764;48.472;8.166;2024-03-06T15:27:46;98649.16;;;7.71;100.00
54876;BME280;40764;48.472;8.166;2024-03-06T15:33:47;98661.50;;;7.94;100.00
54876;BME280;40764;48.472;8.166;2024-03-06T15:39:47;98660.59;;;7.73;100.00
54876;BME280;40764;48.472;8.166;2024-03-06T15:45:48;98660.44;;;7.38;100.00
54876;BME280;40764;48.472;8.166;2024-03-06T15:51:49;98657.19;;;7.46;100.00
54876;BME280;40764;48.472;8.166;2024-03-06T15:57:49;98663.16;;;7.38;100.00
54876;BME280;40764;48.472;8.166;2024-03-06T16:03:49;98665.56;;;7.29;100.00
54876;BME280;40764;48.472;8.166;2024-03-06T16:09:52;98670.25;;;7.02;100.00
54876;BME280;40764;48.472;8.166;2024-03-06T16:15:53;98678.13;;;6.98;100.00
54876;BME280;40764;48.472;8.166;2024-03-06T16:21:53;98675.78;;;7.17;100.00
54876;BME280;40764;48.472;8.166;2024-03-06T16:27:53;98680.66;;;7.10;100.00
54876;BME280;40764;48.472;8.166;2024-03-06T16:33:54;98677.56;;;6.96;100.00
54876;BME280;40764;48.472;8.166;2024-03-06T16:39:54;98682.31;;;7.16;100.00
54876;BME280;40764;48.472;8.166;2024-03-06T16:45:54;98684.38;;;6.99;100.00
54876;BME280;40764;48.472;8.166;2024-03-06T16:51:55;98697.03;;;7.20;100.00
54876;BME280;40764;48.472;8.166;2024-03-06T16:57:55;98691.94;;;7.29;100.00
54876;BME280;40764;48.472;8.166;2024-03-06T17:03:55;98692.06;;;7.12;100.00
54876;BME280;40764;48.472;8.166;2024-03-06T17:09:56;98694.53;;;7.13;100.00
54876;BME280;40764;48.472;8.166;2024-03-06T17:15:56;98704.22;;;6.99;100.00
54876;BME280;40764;48.472;8.166;2024-03-06T17:21:57;98700.31;;;6.90;100.00
54876;BME280;40764;48.472;8.166;2024-03-06T17:27:57;98698.34;;;6.80;100.00
54876;BME280;40764;48.472;8.166;2024-03-06T17:33:58;98711.34;;;7.05;100.00
54876;BME280;40764;48.472;8.166;2024-03-06T17:39:59;98709.63;;;6.94;100.00
54876;BME280;40764;48.472;8.166;2024-03-06T17:45:59;98713.84;;;6.80;100.00
54876;BME280;40764;48.472;8.166;2024-03-06T17:51:59;98717.16;;;6.87;100.00
54876;BME280;40764;48.472;8.166;2024-03-06T17:58:00;98725.97;;;6.67;100.00
54876;BME280;40764;48.472;8.166;2024-03-06T18:04:01;98720.13;;;6.86;100.00
54876;BME280;40764;48.472;8.166;2024-03-06T18:10:01;98721.63;;;6.98;100.00
54876;BME280;40764;48.472;8.166;2024-03-06T18:16:02;98725.28;;;7.19;100.00
54876;BME280;40764;48.472;8.166;2024-03-06T18:22:03;98733.72;;;7.18;100.00
54876;BME280;40764;48.472;8.166;2024-03-06T18:28:04;98728.75;;;7.09;100.00
54876;BME280;40764;48.472;8.166;2024-03-06T18:34:05;98730.66;;;7.09;100.00
54876;BME280;40764;48.472;8.166;2024-03-06T18:40:06;98726.44;;;7.23;100.00
54876;BME280;40764;48.472;8.166;2024-03-06T18:46:06;98727.88;;;6.99;100.00
54876;BME280;40764;48.472;8.166;2024-03-06T18:52:06;98728.84;;;6.88;100.00
54876;BME280;40764;48.472;8.166;2024-03-06T18:58:06;98731.41;;;6.99;100.00
54876;BME280;40764;48.472;8.166;2024-03-06T19:04:09;98731.38;;;6.94;100.00
54876;BME280;40764;48.472;8.166;2024-03-06T19:10:09;98731.94;;;6.96;100.00
54876;BME280;40764;48.472;8.166;2024-03-06T19:16:11;98736.81;;;6.94;100.00
54876;BME280;40764;48.472;8.166;2024-03-06T19:22:11;98741.38;;;6.94;100.00
54876;BME280;40764;48.472;8.166;2024-03-06T19:28:11;98731.97;;;7.01;100.00
54876;BME280;40764;48.472;8.166;2024-03-06T19:34:12;98734.09;;;6.94;100.00
54876;BME280;40764;48.472;8.166;2024-03-06T19:40:13;98733.88;;;6.74;100.00
54876;BME280;40764;48.472;8.166;2024-03-06T19:46:14;98735.88;;;6.83;100.00
54876;BME280;40764;48.472;8.166;2024-03-06T19:52:15;98733.47;;;6.87;100.00
54876;BME280;40764;48.472;8.166;2024-03-06T19:58:15;98731.38;;;6.94;100.00
54876;BME280;40764;48.472;8.166;2024-03-06T20:04:15;98728.16;;;7.02;100.00
54876;BME280;40764;48.472;8.166;2024-03-06T20:10:16;98736.97;;;7.20;100.00
54876;BME280;40764;48.472;8.166;2024-03-06T20:16:16;98728.13;;;7.34;100.00
54876;BME280;40764;48.472;8.166;2024-03-06T20:22:17;98720.00;;;7.39;100.00
54876;BME280;40764;48.472;8.166;2024-03-06T20:28:17;98724.88;;;7.37;100.00
54876;BME280;40764;48.472;8.166;2024-03-06T20:34:17;98723.28;;;7.04;100.00
54876;BME280;40764;48.472;8.166;2024-03-06T20:40:18;98719.66;;;6.94;100.00
54876;BME280;40764;48.472;8.166;2024-03-06T20:46:20;98720.44;;;6.89;100.00
54876;BME280;40764;48.472;8.166;2024-03-06T20:52:20;98719.16;;;6.97;100.00
54876;BME280;40764;48.472;8.166;2024-03-06T20:58:20;98715.91;;;7.00;100.00
54876;BME280;40764;48.472;8.166;2024-03-06T21:04:21;98703.31;;;6.89;100.00
54876;BME280;40764;48.472;8.166;2024-03-06T21:10:21;98692.28;;;7.00;100.00
54876;BME280;40764;48.472;8.166;2024-03-06T21:16:22;98700.88;;;6.92;100.00
54876;BME280;40764;48.472;8.166;2024-03-06T21:22:22;98695.00;;;7.00;100.00
54876;BME280;40764;48.472;8.166;2024-03-06T21:28:23;98699.63;;;7.05;100.00
54876;BME280;40764;48.472;8.166;2024-03-06T21:34:24;98703.47;;;7.09;100.00
54876;BME280;40764;48.472;8.166;2024-03-06T21:40:24;98705.13;;;6.78;100.00
54876;BME280;40764;48.472;8.166;2024-03-06T21:46:25;98699.06;;;6.98;100.00
54876;BME280;40764;48.472;8.166;2024-03-06T21:52:25;98704.22;;;6.99;100.00
54876;BME280;40764;48.472;8.166;2024-03-06T21:58:25;98692.81;;;7.02;100.00
54876;BME280;40764;48.472;8.166;2024-03-06T22:04:27;98683.56;;;6.98;100.00
54876;BME280;40764;48.472;8.166;2024-03-06T22:10:28;98680.97;;;7.19;100.00
54876;BME280;40764;48.472;8.166;2024-03-06T22:16:28;98684.22;;;7.15;100.00
54876;BME280;40764;48.472;8.166;2024-03-06T22:22:28;98682.97;;;7.28;100.00
54876;BME280;40764;48.472;8.166;2024-03-06T22:28:30;98681.69;;;7.04;100.00
54876;BME280;40764;48.472;8.166;2024-03-06T22:34:30;98679.03;;;7.14;100.00
54876;BME280;40764;48.472;8.166;2024-03-06T22:40:30;98682.00;;;7.12;100.00
54876;BME280;40764;48.472;8.166;2024-03-06T22:46:31;98673.03;;;7.12;100.00
54876;BME280;40764;48.472;8.166;2024-03-06T22:52:32;98677.63;;;7.06;100.00
54876;BME280;40764;48.472;8.166;2024-03-06T22:58:32;98672.97;;;7.02;100.00
54876;BME280;40764;48.472;8.166;2024-03-06T23:04:32;98675.34;;;6.93;100.00
54876;BME280;40764;48.472;8.166;2024-03-06T23:10:33;98673.97;;;7.28;100.00
54876;BME280;40764;48.472;8.166;2024-03-06T23:16:33;98685.13;;;7.26;100.00
54876;BME280;40764;48.472;8.166;2024-03-06T23:22:34;98678.38;;;7.39;100.00
54876;BME280;40764;48.472;8.166;2024-03-06T23:28:34;98668.97;;;7.14;100.00
54876;BME280;40764;48.472;8.166;2024-03-06T23:34:34;98669.78;;;7.10;100.00
54876;BME280;40764;48.472;8.166;2024-03-06T23:40:35;98666.81;;;7.17;100.00
54876;BME280;40764;48.472;8.166;2024-03-06T23:46:35;98659.50;;;7.22;100.00
54876;BME280;40764;48.472;8.166;2024-03-06T23:52:36;98664.47;;;6.93;100.00
54876;BME280;40764;48.472;8.166;2024-03-06T23:58:37;98653.84;;;6.92;100.00
